Time;durP1;ratioP1;P1;durP2;ratioP2;P2;SDS_P1;SDS_P2;PMS_P1;PMS_P2;Temp;Humidity;BMP_temperature;BMP_pressure;BME280_temperature;BME280_humidity;BME280_pressure;Samples;Min_cycle;Max_cycle;Signal;HPM_P1;HPM_P2
2022/03/01 07:04:54;;;;;;;18.60;10.32;;;;;;;;;;5055971;28;20447;-65
2022/03/01 07:07:22;;;;;;;16.95;9.98;;;;;;;;;;5048996;28;20063;-65
2022/03/01 07:09:50;;;;;;;15.70;9.35;;;;;;;;;;5048979;28;20053;-65
2022/03/01 07:12:21;;;;;;;12.50;8.63;;;;;;;;;;5040734;28;20052;-66
2022/03/01 07:14:49;;;;;;;11.48;8.20;;;;;;;;;;5036893;28;20455;-65
2022/03/01 07:17:16;;;;;;;16.10;8.23;;;;;;;;;;5049422;28;20095;-66
2022/03/01 07:19:43;;;;;;;12.40;8.13;;;;;;;;;;5040950;28;20501;-65
2022/03/01 07:22:11;;;;;;;12.20;8.35;;;;;;;;;;5029256;28;20581;-65
2022/03/01 07:24:39;;;;;;;15.25;8.63;;;;;;;;;;5033947;28;20075;-65
2022/03/01 07:27:07;;;;;;;19.73;8.95;;;;;;;;;;5039855;28;20060;-64
2022/03/01 07:29:36;;;;;;;11.15;6.97;;;;;;;;;;5049356;28;20136;-65
2022/03/01 07:32:05;;;;;;;11.75;8.05;;;;;;;;;;5039480;28;20124;-65
2022/03/01 07:34:33;;;;;;;9.57;7.35;;;;;;;;;;5032936;28;20037;-66
2022/03/01 07:37:00;;;;;;;11.77;7.07;;;;;;;;;;5048626;28;20516;-68
2022/03/01 07:39:28;;;;;;;10.38;6.68;;;;;;;;;;5048893;28;20463;-67
2022/03/01 07:41:55;;;;;;;8.15;6.78;;;;;;;;;;5048086;28;20508;-67
2022/03/01 07:44:23;;;;;;;10.68;7.05;;;;;;;;;;5049608;28;20057;-65
2022/03/01 07:46:52;;;;;;;6.68;5.97;;;;;;;;;;5044697;28;20092;-65
2022/03/01 07:49:20;;;;;;;13.57;5.88;;;;;;;;;;5049093;28;20072;-66
2022/03/01 07:51:47;;;;;;;8.00;5.50;;;;;;;;;;5050907;28;20096;-67
2022/03/01 07:54:15;;;;;;;7.72;5.88;;;;;;;;;;5049790;28;20037;-66
2022/03/01 07:56:42;;;;;;;9.60;5.28;;;;;;;;;;5046826;28;20626;-67
2022/03/01 07:59:10;;;;;;;5.57;4.82;;;;;;;;;;5034493;28;20107;-68
2022/03/01 08:01:37;;;;;;;8.52;5.85;;;;;;;;;;5036688;28;20467;-70
2022/03/01 08:04:05;;;;;;;5.95;5.15;;;;;;;;;;5028763;28;20057;-68
2022/03/01 08:06:33;;;;;;;7.30;6.47;;;;;;;;;;5029227;28;20061;-67
2022/03/01 08:09:04;;;;;;;6.90;6.20;;;;;;;;;;5035418;28;20411;-71
2022/03/01 08:11:31;;;;;;;8.07;5.68;;;;;;;;;;5029621;28;20065;-68
2022/03/01 08:13:59;;;;;;;7.60;6.03;;;;;;;;;;5027958;28;20432;-68
2022/03/01 08:16:27;;;;;;;9.25;6.65;;;;;;;;;;5015527;28;20130;-68
2022/03/01 08:18:55;;;;;;;9.63;6.78;;;;;;;;;;5021019;28;20049;-68
2022/03/01 08:21:22;;;;;;;7.82;5.35;;;;;;;;;;5022496;28;20095;-68
2022/03/01 08:23:53;;;;;;;7.35;5.82;;;;;;;;;;5035703;28;20103;-68
2022/03/01 08:26:20;;;;;;;15.82;6.18;;;;;;;;;;5034217;28;20619;-68
2022/03/01 08:28:49;;;;;;;6.75;5.75;;;;;;;;;;5034096;28;20046;-68
2022/03/01 08:31:17;;;;;;;6.95;5.38;;;;;;;;;;5026822;28;20096;-68
2022/03/01 08:33:44;;;;;;;11.35;5.70;;;;;;;;;;5015378;28;20076;-68
2022/03/01 08:36:17;;;;;;;8.38;5.78;;;;;;;;;;5016092;28;20042;-68
2022/03/01 08:38:44;;;;;;;6.55;5.90;;;;;;;;;;5015677;28;20141;-68
2022/03/01 08:41:12;;;;;;;6.57;4.95;;;;;;;;;;5015312;28;20060;-68
2022/03/01 08:43:39;;;;;;;8.70;5.18;;;;;;;;;;5015010;28;20045;-68
2022/03/01 08:46:11;;;;;;;8.00;4.22;;;;;;;;;;5014794;28;20124;-68
2022/03/01 08:48:39;;;;;;;6.50;5.25;;;;;;;;;;5019242;28;20045;-68
2022/03/01 08:51:08;;;;;;;8.93;4.72;;;;;;;;;;5027878;28;20054;-68
2022/03/01 08:53:37;;;;;;;7.40;5.40;;;;;;;;;;5015772;28;20397;-68
2022/03/01 08:56:05;;;;;;;5.63;4.72;;;;;;;;;;5015666;28;20129;-68
2022/03/01 08:58:32;;;;;;;7.28;5.38;;;;;;;;;;5015642;28;20128;-68
2022/03/01 09:01:02;;;;;;;9.13;5.18;;;;;;;;;;5016216;28;20046;-68
2022/03/01 09:03:30;;;;;;;6.75;5.10;;;;;;;;;;5014991;28;20505;-68
2022/03/01 09:06:14;;;;;;;7.47;6.28;;;;;;;;;;5027998;28;20055;-68
2022/03/01 09:08:42;;;;;;;7.78;5.50;;;;;;;;;;5035269;28;20037;-68
2022/03/01 09:11:10;;;;;;;8.40;5.45;;;;;;;;;;5030082;28;20076;-68
2022/03/01 09:13:38;;;;;;;7.60;6.07;;;;;;;;;;5015032;28;20057;-68
2022/03/01 09:16:07;;;;;;;6.68;5.95;;;;;;;;;;5013879;28;20052;-68
2022/03/01 09:18:35;;;;;;;6.50;5.43;;;;;;;;;;5013495;28;20575;-68
2022/03/01 09:21:06;;;;;;;9.43;5.72;;;;;;;;;;5014682;28;20053;-68
2022/03/01 09:23:40;;;;;;;8.73;5.90;;;;;;;;;;5015349;28;20057;-68
2022/03/01 09:26:07;;;;;;;7.35;5.57;;;;;;;;;;5014800;28;20128;-68
2022/03/01 09:28:35;;;;;;;8.50;5.72;;;;;;;;;;5032545;28;20057;-67
2022/03/01 09:31:02;;;;;;;6.05;4.97;;;;;;;;;;5031764;28;20103;-68
2022/03/01 09:33:31;;;;;;;6.75;5.00;;;;;;;;;;5013890;28;20042;-70
2022/03/01 09:35:59;;;;;;;11.32;6.05;;;;;;;;;;5024459;28;20041;-69
2022/03/01 09:38:26;;;;;;;7.40;5.53;;;;;;;;;;5031333;28;20041;-70
2022/03/01 09:40:55;;;;;;;5.68;4.90;;;;;;;;;;5033502;28;20046;-70
2022/03/01 09:43:22;;;;;;;6.45;5.63;;;;;;;;;;5032664;28;20080;-70
2022/03/01 09:45:49;;;;;;;5.63;5.13;;;;;;;;;;5033012;28;20060;-70
2022/03/01 09:48:17;;;;;;;9.57;5.38;;;;;;;;;;5033765;28;20053;-70
2022/03/01 09:50:45;;;;;;;9.32;5.65;;;;;;;;;;4935939;28;20538;-68
2022/03/01 09:53:13;;;;;;;12.85;5.70;;;;;;;;;;4975440;28;20133;-70
2022/03/01 09:55:41;;;;;;;6.68;5.38;;;;;;;;;;4985824;28;20082;-70
2022/03/01 09:58:09;;;;;;;6.40;5.78;;;;;;;;;;4994491;28;20054;-70
2022/03/01 10:00:36;;;;;;;6.30;5.35;;;;;;;;;;4992397;28;20053;-75
2022/03/01 10:03:06;;;;;;;7.88;6.28;;;;;;;;;;4977442;28;20493;-70
2022/03/01 10:05:37;;;;;;;8.98;6.40;;;;;;;;;;4993994;28;20628;-70
2022/03/01 10:08:06;;;;;;;9.20;5.30;;;;;;;;;;4993110;28;20565;-70
2022/03/01 10:10:39;;;;;;;8.80;5.20;;;;;;;;;;4993271;28;20050;-70
2022/03/01 10:13:30;;;;;;;6.28;5.57;;;;;;;;;;4994828;28;20062;-70
2022/03/01 10:16:10;;;;;;;6.72;5.63;;;;;;;;;;4994444;28;20049;-70
2022/03/01 10:18:47;;;;;;;9.20;6.65;;;;;;;;;;4994050;28;20046;-68
2022/03/01 10:21:15;;;;;;;7.35;5.63;;;;;;;;;;4989273;28;20133;-68
2022/03/01 10:23:57;;;;;;;8.98;5.20;;;;;;;;;;4982626;28;20062;-70
2022/03/01 10:26:30;;;;;;;7.88;5.82;;;;;;;;;;5008498;28;20061;-69
2022/03/01 10:28:58;;;;;;;7.30;5.43;;;;;;;;;;5008236;28;20050;-70
2022/03/01 10:31:30;;;;;;;5.47;4.53;;;;;;;;;;4992662;28;20101;-70
2022/03/01 10:34:07;;;;;;;7.13;5.30;;;;;;;;;;4993884;28;20065;-70
2022/03/01 10:36:46;;;;;;;6.72;5.40;;;;;;;;;;4983611;28;20050;-70
2022/03/01 10:39:19;;;;;;;5.72;5.22;;;;;;;;;;4990055;28;20054;-71
2022/03/01 10:41:48;;;;;;;6.88;5.55;;;;;;;;;;4992148;28;20050;-70
2022/03/01 10:44:20;;;;;;;8.15;5.35;;;;;;;;;;4991135;28;20089;-70
2022/03/01 10:46:51;;;;;;;6.72;5.57;;;;;;;;;;4992859;28;20563;-70
2022/03/01 10:49:29;;;;;;;9.35;5.25;;;;;;;;;;4989623;28;20055;-69
2022/03/01 10:51:57;;;;;;;7.18;5.13;;;;;;;;;;4973039;28;20046;-68
2022/03/01 10:54:40;;;;;;;7.55;5.97;;;;;;;;;;4993488;28;20057;-69
2022/03/01 10:57:10;;;;;;;7.22;6.03;;;;;;;;;;4991453;28;20060;-68
2022/03/01 10:59:39;;;;;;;6.20;5.35;;;;;;;;;;4992486;28;20078;-68
2022/03/01 11:02:08;;;;;;;6.78;5.28;;;;;;;;;;4983135;28;20054;-67
2022/03/01 11:04:36;;;;;;;7.47;6.18;;;;;;;;;;4973999;28;20054;-68
2022/03/01 11:07:05;;;;;;;6.28;5.40;;;;;;;;;;4991469;28;20070;-68
2022/03/01 11:09:33;;;;;;;7.25;5.35;;;;;;;;;;4977494;28;20054;-68
2022/03/01 11:12:01;;;;;;;5.25;4.55;;;;;;;;;;4992673;28;20055;-69
2022/03/01 11:14:34;;;;;;;7.10;5.20;;;;;;;;;;4976926;28;20050;-68
2022/03/01 11:17:38;;;;;;;8.75;4.60;;;;;;;;;;4993763;28;20409;-67
2022/03/01 11:20:13;;;;;;;5.70;5.10;;;;;;;;;;4981430;28;20051;-67
2022/03/01 11:22:47;;;;;;;6.28;5.50;;;;;;;;;;4999021;28;20050;-68
2022/03/01 11:25:16;;;;;;;7.03;5.47;;;;;;;;;;4988474;28;20051;-68
2022/03/01 11:27:47;;;;;;;8.13;5.25;;;;;;;;;;4986008;28;20796;-68
2022/03/01 11:30:17;;;;;;;7.00;5.78;;;;;;;;;;4973883;28;20050;-68
2022/03/01 11:32:46;;;;;;;7.95;5.95;;;;;;;;;;4973660;28;20066;-68
2022/03/01 11:35:22;;;;;;;9.35;6.40;;;;;;;;;;4998989;28;20123;-68
2022/03/01 11:38:13;;;;;;;6.07;5.20;;;;;;;;;;4977857;28;20090;-68
2022/03/01 11:40:50;;;;;;;7.85;5.25;;;;;;;;;;4991991;28;20054;-68
2022/03/01 11:43:23;;;;;;;6.32;5.70;;;;;;;;;;4998362;28;20145;-68
2022/03/01 11:45:54;;;;;;;6.32;5.18;;;;;;;;;;4993118;28;20074;-68
2022/03/01 11:48:27;;;;;;;7.45;5.78;;;;;;;;;;4990240;28;20055;-68
2022/03/01 11:51:03;;;;;;;8.13;5.55;;;;;;;;;;4976817;28;20054;-68
2022/03/01 11:53:39;;;;;;;5.65;5.15;;;;;;;;;;4978243;28;20055;-68
2022/03/01 11:56:07;;;;;;;8.35;5.43;;;;;;;;;;4994220;28;20413;-68
2022/03/01 11:58:37;;;;;;;6.50;5.82;;;;;;;;;;4979469;28;20050;-68
2022/03/01 12:01:09;;;;;;;7.32;6.03;;;;;;;;;;4981037;28;20105;-68
2022/03/01 12:03:38;;;;;;;5.22;4.72;;;;;;;;;;4978075;28;20055;-68
2022/03/01 12:06:07;;;;;;;6.50;5.78;;;;;;;;;;4995274;28;20053;-68
2022/03/01 12:08:37;;;;;;;7.75;5.35;;;;;;;;;;4990192;28;20069;-68
2022/03/01 12:11:04;;;;;;;8.48;7.60;;;;;;;;;;4990735;28;20498;-68
2022/03/01 12:13:41;;;;;;;5.55;4.97;;;;;;;;;;4996313;28;20510;-68
2022/03/01 12:16:25;;;;;;;5.53;4.97;;;;;;;;;;4995596;28;20081;-68
2022/03/01 12:18:52;;;;;;;6.70;6.00;;;;;;;;;;4992105;28;20058;-68
2022/03/01 12:21:19;;;;;;;6.65;5.95;;;;;;;;;;4991895;28;20322;-68
2022/03/01 12:23:46;;;;;;;6.85;5.90;;;;;;;;;;5009599;28;20057;-68
2022/03/01 12:26:15;;;;;;;5.40;4.90;;;;;;;;;;4978916;28;20069;-68
2022/03/01 12:28:45;;;;;;;8.80;6.15;;;;;;;;;;4995607;28;20455;-68
2022/03/01 12:31:22;;;;;;;14.48;10.93;;;;;;;;;;4968556;28;20134;-68
2022/03/01 12:33:51;;;;;;;5.65;5.15;;;;;;;;;;4980647;28;20489;-67
2022/03/01 12:36:40;;;;;;;6.28;5.30;;;;;;;;;;4993735;28;20117;-67
2022/03/01 12:39:07;;;;;;;6.15;5.50;;;;;;;;;;4986192;28;20500;-67
2022/03/01 12:41:41;;;;;;;6.40;4.85;;;;;;;;;;4994881;28;20520;-67
2022/03/01 12:44:10;;;;;;;6.22;5.03;;;;;;;;;;4994200;28;20398;-67
2022/03/01 12:46:39;;;;;;;7.53;6.15;;;;;;;;;;4994078;28;20055;-67
2022/03/01 12:49:10;;;;;;;6.20;5.38;;;;;;;;;;4994027;28;20045;-67
2022/03/01 12:51:39;;;;;;;7.07;6.15;;;;;;;;;;4977224;28;20109;-67
2022/03/01 12:54:11;;;;;;;7.22;6.53;;;;;;;;;;4975953;28;20078;-67
2022/03/01 12:56:41;;;;;;;6.65;5.97;;;;;;;;;;4960076;28;20058;-67
2022/03/01 12:59:13;;;;;;;6.28;5.68;;;;;;;;;;4976676;28;20137;-67
2022/03/01 13:01:43;;;;;;;6.25;5.70;;;;;;;;;;4990073;28;20107;-67
2022/03/01 13:04:11;;;;;;;7.10;5.65;;;;;;;;;;4978442;28;20081;-67
2022/03/01 13:06:40;;;;;;;6.18;5.57;;;;;;;;;;4978554;28;20054;-67
2022/03/01 13:09:08;;;;;;;6.15;5.53;;;;;;;;;;4975086;28;20181;-67
2022/03/01 13:11:37;;;;;;;8.10;6.70;;;;;;;;;;4992341;28;20414;-66
2022/03/01 13:14:10;;;;;;;8.05;6.20;;;;;;;;;;4979555;28;20058;-67
2022/03/01 13:16:42;;;;;;;6.72;5.95;;;;;;;;;;4990159;28;20105;-66
2022/03/01 13:19:15;;;;;;;6.43;5.57;;;;;;;;;;4993117;28;20056;-67
2022/03/01 13:21:49;;;;;;;7.50;5.80;;;;;;;;;;4991098;28;20050;-67
2022/03/01 13:24:23;;;;;;;7.25;5.68;;;;;;;;;;4994885;28;20568;-66
2022/03/01 13:26:52;;;;;;;6.65;5.82;;;;;;;;;;4993264;28;20045;-67
2022/03/01 13:29:24;;;;;;;5.80;5.20;;;;;;;;;;4994705;28;20085;-66
2022/03/01 13:32:06;;;;;;;6.63;5.93;;;;;;;;;;4992797;28;20061;-66
2022/03/01 13:34:35;;;;;;;6.57;5.43;;;;;;;;;;4999781;28;20545;-66
2022/03/01 13:37:14;;;;;;;5.55;5.03;;;;;;;;;;4994573;28;20047;-66
2022/03/01 13:39:46;;;;;;;7.03;5.45;;;;;;;;;;4990964;28;20109;-66
2022/03/01 13:42:16;;;;;;;7.20;5.68;;;;;;;;;;4993325;28;20093;-66
2022/03/01 13:44:46;;;;;;;6.63;5.72;;;;;;;;;;4994282;28;20133;-66
2022/03/01 13:47:17;;;;;;;6.25;5.65;;;;;;;;;;4994425;28;20050;-66
2022/03/01 13:50:10;;;;;;;7.93;5.93;;;;;;;;;;4992654;28;20050;-68
2022/03/01 13:52:40;;;;;;;7.00;5.72;;;;;;;;;;4993103;28;20050;-66
2022/03/01 13:55:22;;;;;;;6.40;5.30;;;;;;;;;;4994304;28;20577;-66
2022/03/01 13:57:54;;;;;;;6.53;5.93;;;;;;;;;;4990194;28;20074;-66
2022/03/01 14:00:42;;;;;;;6.78;5.40;;;;;;;;;;4992156;28;20070;-66
2022/03/01 14:03:26;;;;;;;6.22;5.60;;;;;;;;;;4993734;28;20058;-66
2022/03/01 14:06:13;;;;;;;6.55;5.85;;;;;;;;;;4994214;28;20046;-66
2022/03/01 14:08:44;;;;;;;12.40;10.68;;;;;;;;;;4991195;28;20074;-66
2022/03/01 14:11:16;;;;;;;7.28;6.57;;;;;;;;;;4993110;28;20076;-66
2022/03/01 14:13:46;;;;;;;8.07;7.22;;;;;;;;;;4993342;28;20050;-68
2022/03/01 14:16:21;;;;;;;8.93;7.32;;;;;;;;;;4992988;28;20497;-67
2022/03/01 14:19:06;;;;;;;9.38;6.88;;;;;;;;;;4994346;28;20046;-67
2022/03/01 14:21:34;;;;;;;9.15;8.05;;;;;;;;;;4993853;28;20078;-67
2022/03/01 14:24:03;;;;;;;7.35;6.65;;;;;;;;;;4993217;28;20042;-67
2022/03/01 14:26:30;;;;;;;8.50;6.07;;;;;;;;;;4993044;28;20547;-67
2022/03/01 14:29:07;;;;;;;9.30;6.32;;;;;;;;;;4994439;28;20054;-67
2022/03/01 14:31:36;;;;;;;9.95;6.28;;;;;;;;;;4993508;28;20501;-67
2022/03/01 14:34:05;;;;;;;10.00;6.85;;;;;;;;;;4993694;28;20072;-67
2022/03/01 14:36:32;;;;;;;9.52;7.40;;;;;;;;;;4994177;28;20124;-67
2022/03/01 14:39:00;;;;;;;8.00;7.20;;;;;;;;;;4993508;28;20145;-67
2022/03/01 14:41:30;;;;;;;6.90;6.20;;;;;;;;;;4993517;28;20070;-67
2022/03/01 14:44:00;;;;;;;13.00;6.55;;;;;;;;;;4992219;28;20413;-68
2022/03/01 14:46:29;;;;;;;7.53;6.68;;;;;;;;;;4991683;28;20054;-68
2022/03/01 14:48:56;;;;;;;7.47;5.68;;;;;;;;;;4991630;28;20085;-69
2022/03/01 14:51:24;;;;;;;9.23;6.85;;;;;;;;;;4992036;28;20066;-69
2022/03/01 14:53:51;;;;;;;6.82;6.22;;;;;;;;;;4992704;28;20093;-69
2022/03/01 14:56:21;;;;;;;8.02;6.70;;;;;;;;;;4993933;28;20113;-69
2022/03/01 14:58:49;;;;;;;7.05;6.35;;;;;;;;;;4988784;28;20054;-69
2022/03/01 15:01:15;;;;;;;7.93;6.47;;;;;;;;;;4989623;28;20125;-69
2022/03/01 15:03:44;;;;;;;8.90;6.03;;;;;;;;;;4990698;28;20054;-69
2022/03/01 15:06:13;;;;;;;10.38;7.43;;;;;;;;;;4987042;28;20038;-69
2022/03/01 15:08:41;;;;;;;8.90;6.93;;;;;;;;;;4990795;28;20088;-69
2022/03/01 15:11:08;;;;;;;9.52;6.53;;;;;;;;;;4991709;28;20050;-69
2022/03/01 15:13:36;;;;;;;8.52;7.40;;;;;;;;;;4992192;28;20529;-69
2022/03/01 15:16:05;;;;;;;9.77;7.25;;;;;;;;;;4991729;28;20046;-69
2022/03/01 15:18:33;;;;;;;8.60;7.32;;;;;;;;;;4992456;28;20046;-69
2022/03/01 15:21:01;;;;;;;10.70;6.82;;;;;;;;;;4993447;28;20109;-69
2022/03/01 15:23:32;;;;;;;9.57;8.38;;;;;;;;;;4992067;28;20458;-69
2022/03/01 15:26:01;;;;;;;7.90;6.53;;;;;;;;;;4995021;28;20069;-69
2022/03/01 15:28:28;;;;;;;7.75;6.95;;;;;;;;;;4997215;28;20054;-68
2022/03/01 15:30:56;;;;;;;8.02;6.82;;;;;;;;;;4995089;28;20058;-69
2022/03/01 15:33:24;;;;;;;7.97;7.18;;;;;;;;;;4996458;28;20129;-68
2022/03/01 15:35:51;;;;;;;8.27;6.90;;;;;;;;;;4996428;28;20047;-69
2022/03/01 15:38:19;;;;;;;8.13;7.30;;;;;;;;;;4997007;28;20050;-67
2022/03/01 15:40:46;;;;;;;13.63;6.70;;;;;;;;;;4996287;28;20061;-68
2022/03/01 15:43:14;;;;;;;8.48;6.85;;;;;;;;;;4996707;28;20178;-67
2022/03/01 15:45:42;;;;;;;7.10;6.40;;;;;;;;;;4986242;28;20069;-68
2022/03/01 15:48:09;;;;;;;8.48;7.05;;;;;;;;;;4978219;28;20053;-67
2022/03/01 15:50:36;;;;;;;11.90;7.10;;;;;;;;;;4989749;28;20052;-67
2022/03/01 15:53:03;;;;;;;10.50;7.35;;;;;;;;;;4994177;28;20050;-68
2022/03/01 15:55:31;;;;;;;7.88;7.13;;;;;;;;;;4982242;28;20130;-67
2022/03/01 15:57:59;;;;;;;13.70;8.43;;;;;;;;;;4977911;28;20403;-69
2022/03/01 16:00:26;;;;;;;10.43;8.00;;;;;;;;;;4986092;28;20488;-67
2022/03/01 16:02:55;;;;;;;7.43;6.65;;;;;;;;;;4996628;28;20054;-70
2022/03/01 16:05:23;;;;;;;11.57;8.30;;;;;;;;;;4996109;28;20075;-68
2022/03/01 16:07:51;;;;;;;8.48;6.50;;;;;;;;;;4990436;28;20054;-68
2022/03/01 16:10:21;;;;;;;8.15;7.13;;;;;;;;;;4994965;28;20421;-68
2022/03/01 16:12:49;;;;;;;8.50;7.15;;;;;;;;;;4994707;28;20081;-69
2022/03/01 16:15:35;;;;;;;8.40;7.25;;;;;;;;;;4996289;28;20054;-68
2022/03/01 16:18:03;;;;;;;9.00;6.22;;;;;;;;;;4995953;28;20050;-68
2022/03/01 16:20:32;;;;;;;8.85;7.20;;;;;;;;;;4978922;28;20101;-68
2022/03/01 16:23:00;;;;;;;8.18;6.13;;;;;;;;;;4995695;28;20494;-68
2022/03/01 16:25:28;;;;;;;8.90;7.03;;;;;;;;;;4995770;28;20050;-68
2022/03/01 16:27:56;;;;;;;9.68;6.68;;;;;;;;;;4995060;28;20104;-68
2022/03/01 16:30:23;;;;;;;7.72;6.68;;;;;;;;;;4995779;28;20034;-69
2022/03/01 16:32:53;;;;;;;7.78;6.57;;;;;;;;;;4978771;28;20393;-69
2022/03/01 16:35:21;;;;;;;10.50;7.05;;;;;;;;;;4976307;28;20069;-68
2022/03/01 16:37:48;;;;;;;7.93;6.95;;;;;;;;;;4995804;28;20057;-69
2022/03/01 16:40:16;;;;;;;7.68;6.10;;;;;;;;;;4994706;28;20057;-69
2022/03/01 16:42:44;;;;;;;8.00;6.68;;;;;;;;;;4995761;28;20057;-69
2022/03/01 16:45:12;;;;;;;7.50;6.80;;;;;;;;;;4985901;28;20038;-69
2022/03/01 16:47:40;;;;;;;8.13;7.13;;;;;;;;;;4992058;28;20057;-69
2022/03/01 16:50:09;;;;;;;12.23;7.13;;;;;;;;;;4986339;28;20054;-69
2022/03/01 16:52:39;;;;;;;11.85;9.27;;;;;;;;;;4976758;28;20062;-68
2022/03/01 16:55:08;;;;;;;11.40;8.55;;;;;;;;;;4982047;28;20047;-68
2022/03/01 16:57:36;;;;;;;13.35;9.80;;;;;;;;;;4986637;28;20050;-67
2022/03/01 17:00:05;;;;;;;13.30;9.68;;;;;;;;;;4993861;28;20401;-68
2022/03/01 17:02:33;;;;;;;12.02;9.15;;;;;;;;;;4976108;28;20054;-68
2022/03/01 17:05:02;;;;;;;9.43;7.57;;;;;;;;;;4994172;28;20481;-68
2022/03/01 17:07:31;;;;;;;13.85;9.80;;;;;;;;;;4994598;28;20080;-68
2022/03/01 17:09:58;;;;;;;10.52;8.57;;;;;;;;;;4995310;28;20042;-67
2022/03/01 17:12:26;;;;;;;12.65;7.93;;;;;;;;;;4995370;28;20061;-68
2022/03/01 17:14:54;;;;;;;10.40;7.18;;;;;;;;;;4994259;28;20061;-68
2022/03/01 17:17:22;;;;;;;12.65;8.93;;;;;;;;;;4978719;28;20050;-68
2022/03/01 17:19:50;;;;;;;12.13;9.50;;;;;;;;;;4984305;28;20039;-68
2022/03/01 17:22:17;;;;;;;13.15;10.10;;;;;;;;;;4984450;28;20067;-68
2022/03/01 17:24:45;;;;;;;10.32;9.25;;;;;;;;;;4985745;28;20141;-68
2022/03/01 17:27:12;;;;;;;14.77;11.05;;;;;;;;;;4982858;28;20414;-68
2022/03/01 17:29:41;;;;;;;13.82;9.63;;;;;;;;;;4988933;28;20393;-68
2022/03/01 17:32:10;;;;;;;16.55;11.55;;;;;;;;;;4996230;28;20046;-67
2022/03/01 17:34:38;;;;;;;13.75;9.73;;;;;;;;;;4993524;28;20144;-67
2022/03/01 17:37:07;;;;;;;11.43;9.52;;;;;;;;;;4995012;28;20058;-67
2022/03/01 17:39:34;;;;;;;11.38;10.15;;;;;;;;;;4994839;28;20429;-67
2022/03/01 17:42:01;;;;;;;16.02;11.30;;;;;;;;;;4994670;28;20046;-67
2022/03/01 17:44:30;;;;;;;17.75;12.25;;;;;;;;;;4993585;28;20046;-67
2022/03/01 17:46:57;;;;;;;14.43;12.00;;;;;;;;;;4993738;28;20062;-68
2022/03/01 17:49:28;;;;;;;29.90;14.07;;;;;;;;;;4977965;28;20045;-67
2022/03/01 17:51:55;;;;;;;15.77;12.82;;;;;;;;;;5002630;28;20054;-67
2022/03/01 17:54:23;;;;;;;16.33;13.15;;;;;;;;;;4993278;28;20453;-67
2022/03/01 17:56:50;;;;;;;18.98;13.32;;;;;;;;;;4986608;28;20081;-67
2022/03/01 17:59:17;;;;;;;17.30;14.25;;;;;;;;;;4992753;28;20056;-67
2022/03/01 18:01:46;;;;;;;17.45;12.80;;;;;;;;;;4977391;28;20137;-68
2022/03/01 18:04:13;;;;;;;17.55;13.43;;;;;;;;;;4987944;28;20055;-67
2022/03/01 18:06:42;;;;;;;19.15;14.13;;;;;;;;;;4986836;28;20054;-67
2022/03/01 18:09:09;;;;;;;17.23;12.70;;;;;;;;;;4993729;28;20054;-68
2022/03/01 18:11:38;;;;;;;24.73;17.15;;;;;;;;;;4993426;28;20121;-68
2022/03/01 18:14:06;;;;;;;50.10;30.88;;;;;;;;;;4993224;28;20528;-67
2022/03/01 18:16:34;;;;;;;28.25;20.55;;;;;;;;;;4994410;28;20046;-67
2022/03/01 18:19:02;;;;;;;26.00;17.30;;;;;;;;;;4990871;28;20042;-66
2022/03/01 18:21:31;;;;;;;22.63;15.75;;;;;;;;;;4989938;28;20050;-65
2022/03/01 18:23:59;;;;;;;40.17;16.60;;;;;;;;;;4989535;28;20106;-66
2022/03/01 18:26:28;;;;;;;26.48;15.70;;;;;;;;;;4991481;28;20053;-66
2022/03/01 18:28:56;;;;;;;40.22;20.85;;;;;;;;;;4994017;28;20061;-66
2022/03/01 18:31:23;;;;;;;22.13;16.58;;;;;;;;;;4991664;28;20066;-67
2022/03/01 18:33:51;;;;;;;25.20;15.57;;;;;;;;;;4988816;28;20133;-66
2022/03/01 18:36:19;;;;;;;31.52;16.05;;;;;;;;;;4994504;28;20113;-67
2022/03/01 18:38:47;;;;;;;23.45;14.27;;;;;;;;;;4996973;28;20042;-67
2022/03/01 18:41:15;;;;;;;22.27;14.35;;;;;;;;;;4996580;28;20054;-65
2022/03/01 18:43:44;;;;;;;21.30;15.55;;;;;;;;;;4993644;28;20054;-68
2022/03/01 18:46:14;;;;;;;90.88;56.47;;;;;;;;;;4992929;28;20403;-67
2022/03/01 18:48:41;;;;;;;30.40;18.52;;;;;;;;;;4995527;28;20039;-67
2022/03/01 18:51:11;;;;;;;23.02;13.05;;;;;;;;;;4995742;28;20132;-67
2022/03/01 18:53:39;;;;;;;23.05;14.15;;;;;;;;;;4993849;28;20058;-68
2022/03/01 18:56:06;;;;;;;17.80;12.80;;;;;;;;;;4994402;28;20070;-67
2022/03/01 18:58:36;;;;;;;17.45;13.57;;;;;;;;;;4991842;28;20038;-66
2022/03/01 19:01:12;;;;;;;20.73;14.27;;;;;;;;;;4994654;28;20046;-68
2022/03/01 19:03:40;;;;;;;24.63;16.10;;;;;;;;;;4991658;28;20065;-68
2022/03/01 19:06:09;;;;;;;23.85;15.68;;;;;;;;;;4992972;28;20118;-67
2022/03/01 19:08:36;;;;;;;20.85;17.90;;;;;;;;;;4990327;28;20043;-67
2022/03/01 19:11:05;;;;;;;37.67;19.35;;;;;;;;;;4992819;28;20391;-68
2022/03/01 19:13:33;;;;;;;22.42;17.33;;;;;;;;;;4995323;28;20043;-67
2022/03/01 19:16:00;;;;;;;29.90;20.08;;;;;;;;;;4992721;28;20065;-68
2022/03/01 19:18:27;;;;;;;25.48;17.30;;;;;;;;;;4996657;28;20398;-68
2022/03/01 19:20:55;;;;;;;26.42;18.50;;;;;;;;;;4993288;28;20054;-68
2022/03/01 19:23:31;;;;;;;25.75;16.58;;;;;;;;;;4993982;28;20077;-68
2022/03/01 19:25:58;;;;;;;25.27;16.73;;;;;;;;;;4997217;28;20417;-67
2022/03/01 19:28:26;;;;;;;25.00;16.75;;;;;;;;;;4994738;28;20046;-68
2022/03/01 19:30:54;;;;;;;26.15;16.08;;;;;;;;;;4993680;28;20055;-67
2022/03/01 19:33:22;;;;;;;20.20;14.77;;;;;;;;;;4994273;28;20061;-68
2022/03/01 19:35:49;;;;;;;20.75;14.25;;;;;;;;;;4988264;28;20042;-69
2022/03/01 19:38:17;;;;;;;21.77;15.68;;;;;;;;;;4996871;28;20096;-67
2022/03/01 19:40:44;;;;;;;21.45;16.45;;;;;;;;;;4997145;28;20054;-68
2022/03/01 19:43:12;;;;;;;16.17;13.77;;;;;;;;;;4992748;28;20049;-71
2022/03/01 19:45:40;;;;;;;17.67;12.98;;;;;;;;;;4990842;28;20050;-68
2022/03/01 19:48:09;;;;;;;20.38;13.57;;;;;;;;;;4996282;28;20042;-68
2022/03/01 19:50:37;;;;;;;13.68;11.13;;;;;;;;;;4992426;28;20098;-69
2022/03/01 19:53:07;;;;;;;14.27;12.60;;;;;;;;;;4992163;28;20129;-69
2022/03/01 19:55:35;;;;;;;13.80;12.23;;;;;;;;;;4993096;28;20106;-68
2022/03/01 19:58:03;;;;;;;24.70;17.20;;;;;;;;;;4999428;28;20427;-68
2022/03/01 20:00:32;;;;;;;31.63;21.98;;;;;;;;;;4988534;28;20051;-70
2022/03/01 20:03:01;;;;;;;31.67;21.48;;;;;;;;;;4989854;28;20042;-70
2022/03/01 20:05:31;;;;;;;32.58;20.70;;;;;;;;;;4987695;28;20501;-68
2022/03/01 20:07:59;;;;;;;23.58;18.92;;;;;;;;;;4986612;28;20055;-68
2022/03/01 20:10:27;;;;;;;23.65;18.80;;;;;;;;;;4985888;28;20050;-68
2022/03/01 20:12:54;;;;;;;24.38;16.02;;;;;;;;;;4981292;28;20051;-68
2022/03/01 20:15:22;;;;;;;22.33;15.75;;;;;;;;;;4982767;28;20474;-69
2022/03/01 20:17:50;;;;;;;23.23;16.77;;;;;;;;;;4978680;28;20051;-68
2022/03/01 20:20:17;;;;;;;19.52;15.15;;;;;;;;;;4982512;28;20080;-68
2022/03/01 20:22:48;;;;;;;21.02;14.93;;;;;;;;;;4990378;28;20054;-68
2022/03/01 20:25:17;;;;;;;18.70;13.82;;;;;;;;;;4980061;28;20050;-68
2022/03/01 20:27:45;;;;;;;23.85;15.73;;;;;;;;;;4988981;28;20133;-69
2022/03/01 20:30:15;;;;;;;16.05;12.52;;;;;;;;;;4983890;28;20050;-68
2022/03/01 20:32:43;;;;;;;13.90;11.88;;;;;;;;;;4986532;28;20043;-69
2022/03/01 20:35:12;;;;;;;17.85;13.40;;;;;;;;;;4976416;28;20093;-69
2022/03/01 20:37:40;;;;;;;20.17;12.77;;;;;;;;;;4986121;28;20148;-69
2022/03/01 20:40:11;;;;;;;18.95;15.13;;;;;;;;;;4983014;28;20522;-68
2022/03/01 20:42:43;;;;;;;21.38;16.70;;;;;;;;;;4983481;28;20069;-69
2022/03/01 20:45:12;;;;;;;33.08;22.10;;;;;;;;;;4985532;28;20417;-69
2022/03/01 20:47:42;;;;;;;24.67;18.85;;;;;;;;;;4989281;28;20494;-69
2022/03/01 20:50:11;;;;;;;22.50;18.83;;;;;;;;;;4979835;28;20063;-69
2022/03/01 20:52:39;;;;;;;24.02;17.13;;;;;;;;;;4992940;28;20058;-69
2022/03/01 20:55:08;;;;;;;20.60;16.42;;;;;;;;;;4988950;28;20047;-69
2022/03/01 20:57:36;;;;;;;21.13;15.95;;;;;;;;;;4990097;28;20517;-70
2022/03/01 21:00:08;;;;;;;23.23;16.42;;;;;;;;;;4978939;28;20141;-69
2022/03/01 21:02:35;;;;;;;22.60;16.67;;;;;;;;;;4978807;28;20054;-68
2022/03/01 21:05:02;;;;;;;25.23;17.92;;;;;;;;;;4994143;28;20466;-69
2022/03/01 21:07:30;;;;;;;24.30;18.92;;;;;;;;;;4980683;28;20049;-69
2022/03/01 21:09:57;;;;;;;23.63;18.98;;;;;;;;;;4983445;28;20047;-70
2022/03/01 21:12:26;;;;;;;24.77;19.23;;;;;;;;;;4992599;28;20502;-69
2022/03/01 21:14:53;;;;;;;29.48;21.13;;;;;;;;;;4984873;28;20046;-68
2022/03/01 21:17:21;;;;;;;21.30;19.08;;;;;;;;;;4986660;28;20130;-69
2022/03/01 21:19:49;;;;;;;26.83;22.00;;;;;;;;;;4990760;28;20413;-68
2022/03/01 21:22:17;;;;;;;25.35;22.45;;;;;;;;;;4980403;28;20046;-68
2022/03/01 21:24:45;;;;;;;32.78;26.58;;;;;;;;;;4980126;28;20066;-68
2022/03/01 21:27:12;;;;;;;19.05;16.58;;;;;;;;;;4989959;28;20042;-69
2022/03/01 21:29:40;;;;;;;23.58;16.17;;;;;;;;;;4984018;28;20059;-69
2022/03/01 21:32:08;;;;;;;18.52;16.33;;;;;;;;;;4991301;28;20049;-69
2022/03/01 21:34:35;;;;;;;17.35;15.38;;;;;;;;;;4985945;28;20081;-68
2022/03/01 21:37:05;;;;;;;18.55;15.52;;;;;;;;;;4980061;28;20133;-69
2022/03/01 21:39:33;;;;;;;21.77;14.43;;;;;;;;;;4978777;28;20510;-69
2022/03/01 21:42:02;;;;;;;18.23;15.55;;;;;;;;;;4987377;28;20118;-69
2022/03/01 21:44:30;;;;;;;16.85;13.48;;;;;;;;;;4985435;28;20065;-69
2022/03/01 21:47:02;;;;;;;15.98;14.35;;;;;;;;;;4977551;28;20054;-69
2022/03/01 21:49:30;;;;;;;19.30;13.82;;;;;;;;;;4988481;28;20061;-69
2022/03/01 21:51:58;;;;;;;19.55;14.68;;;;;;;;;;4978527;28;20047;-69